Terminal Aerodrome Forecast
Issued by NWS

Home | Current Version | Previous Version | Text Only | Print | Product List | Glossary On
Versions: 1 2 3 4 5 6 7 8 9 10 11 12 13 14
000
FTUS46 KSGX 212300
TAFTRM
TAF
KTRM 212324Z 2200/2224 13025G35KT 1SM HZ BLDU SCT010 BKN100
     FM220100 14015G25KT 3SM HZ BLDU SCT100 BKN120
     FM220200 13010KT 6SM HZ SCT100 SCT150
     FM220300 VRB06KT P6SM SCT150
     FM221900 14010KT P6SM SCT100=

USA.gov is the U.S. government's official web portal to all federal, state and local government web resources and services.